Time;durP1;ratioP1;P1;durP2;ratioP2;P2;SDS_P1;SDS_P2;PMS_P1;PMS_P2;Temp;Humidity;BMP_temperature;BMP_pressure;BME280_temperature;BME280_humidity;BME280_pressure;Samples;Min_cycle;Max_cycle;Signal;HPM_P1;HPM_P2
2024/04/09 00:00:13;;;;;;;19.50;16.77;;;;;;;-146.25;100.00;52376.31;2210947;26;36588;-63
2024/04/09 00:01:17;;;;;;;20.48;16.30;;;;;;;-146.25;100.00;52380.38;2210859;26;33235;-62
2024/04/09 00:02:19;;;;;;;18.65;16.67;;;;;;;-146.25;100.00;52380.38;2211098;26;30518;-62
2024/04/09 00:03:21;;;;;;;20.42;16.30;;;;;;;-146.25;100.00;52374.28;2210809;26;39059;-63
2024/04/09 00:04:23;;;;;;;24.33;17.10;;;;;;;-146.25;100.00;52337.78;2211139;26;30916;-62
2024/04/09 00:05:31;;;;;;;19.98;16.35;;;;;;;-146.25;100.00;52360.09;2210593;26;35157;-62
2024/04/09 00:06:36;;;;;;;20.48;17.50;;;;;;;-146.25;100.00;52384.41;2223791;26;32447;-62
2024/04/09 00:07:38;;;;;;;23.45;17.17;;;;;;;-146.25;100.00;52392.53;2223663;26;33637;-62
2024/04/09 00:08:44;;;;;;;26.15;16.77;;;;;;;-146.25;100.00;52390.50;2209917;26;38481;-62
2024/04/09 00:09:52;;;;;;;22.38;16.55;;;;;;;-146.25;100.00;52392.53;2210105;26;32271;-62
2024/04/09 00:10:54;;;;;;;18.67;16.65;;;;;;;-146.25;100.00;52394.56;2209616;26;32736;-62
2024/04/09 00:11:58;;;;;;;22.10;17.00;;;;;;;-146.25;100.00;52390.50;2210090;26;35512;-62
2024/04/09 00:13:04;;;;;;;21.88;17.45;;;;;;;-146.25;100.00;52420.91;2210581;26;20179;-62
2024/04/09 00:14:07;;;;;;;21.13;17.77;;;;;;;-146.25;100.00;52414.84;2210278;26;32716;-62
2024/04/09 00:15:12;;;;;;;22.13;17.35;;;;;;;-146.25;100.00;52424.97;2210715;26;34955;-62
2024/04/09 00:16:14;;;;;;;20.50;18.00;;;;;;;-146.25;100.00;52400.63;2211108;26;33896;-62
2024/04/09 00:17:19;;;;;;;22.70;17.42;;;;;;;-146.25;100.00;52410.78;2210689;26;37035;-62
2024/04/09 00:18:24;;;;;;;24.42;17.52;;;;;;;-146.25;100.00;52366.16;2210909;26;20127;-63
2024/04/09 00:19:26;;;;;;;20.95;18.45;;;;;;;-146.25;100.00;52360.09;2209764;26;35434;-61
2024/04/09 00:20:29;;;;;;;21.02;18.65;;;;;;;-146.25;100.00;52416.84;2211037;26;33928;-62
2024/04/09 00:21:31;;;;;;;22.25;17.77;;;;;;;-146.25;100.00;52418.88;2224765;26;33999;-62
2024/04/09 00:22:33;;;;;;;22.05;17.05;;;;;;;-146.25;100.00;52390.50;2224461;26;36587;-63
2024/04/09 00:23:39;;;;;;;23.42;17.90;;;;;;;-146.25;100.00;52376.31;2210595;26;34485;-62
2024/04/09 00:24:41;;;;;;;22.83;17.75;;;;;;;-146.25;100.00;52382.38;2211104;26;34668;-62
2024/04/09 00:25:46;;;;;;;24.80;18.35;;;;;;;-146.25;100.00;52386.44;2210217;26;35661;-62
2024/04/09 00:26:51;;;;;;;23.77;18.15;;;;;;;-146.25;100.00;52376.31;2211003;26;20072;-64
2024/04/09 00:27:53;;;;;;;21.38;18.17;;;;;;;-146.25;100.00;52380.38;2209778;26;34940;-62
2024/04/09 00:28:55;;;;;;;24.95;18.58;;;;;;;-146.25;100.00;52418.88;2211153;26;32531;-62
2024/04/09 00:29:56;;;;;;;21.95;18.40;;;;;;;-146.25;100.00;52347.91;2210401;26;33346;-62
2024/04/09 00:30:58;;;;;;;23.90;18.48;;;;;;;-146.25;100.00;52368.19;2211019;26;35657;-62
2024/04/09 00:32:01;;;;;;;20.48;17.75;;;;;;;-146.25;100.00;52400.63;2210524;26;33614;-62
2024/04/09 00:33:03;;;;;;;24.20;17.90;;;;;;;-146.25;100.00;52378.34;2210853;26;37995;-62
2024/04/09 00:34:06;;;;;;;24.23;18.13;;;;;;;-146.25;100.00;52412.81;2209745;26;30798;-62
2024/04/09 00:35:11;;;;;;;21.85;18.08;;;;;;;-146.25;100.00;52388.47;2210073;26;36034;-62
2024/04/09 00:36:13;;;;;;;21.23;18.17;;;;;;;-146.25;100.00;52392.53;2210713;26;30374;-62
2024/04/09 00:37:15;;;;;;;21.73;18.27;;;;;;;-146.25;100.00;52372.25;2210169;26;33454;-62
2024/04/09 00:38:19;;;;;;;23.05;17.60;;;;;;;-146.25;100.00;52402.66;2209519;26;37834;-62
2024/04/09 00:39:25;;;;;;;23.85;18.70;;;;;;;-146.25;100.00;52388.47;2210009;26;32688;-62
2024/04/09 00:40:29;;;;;;;23.65;18.00;;;;;;;-146.25;100.00;52374.28;2209318;26;35000;-62
2024/04/09 00:41:31;;;;;;;25.33;18.55;;;;;;;-146.25;100.00;52416.84;2211039;26;34308;-62
2024/04/09 00:42:33;;;;;;;25.45;18.77;;;;;;;-146.25;100.00;52402.66;2210694;26;27144;-62
2024/04/09 00:43:35;;;;;;;19.65;17.55;;;;;;;-146.25;100.00;52392.53;2209851;26;37554;-62
2024/04/09 00:44:37;;;;;;;21.02;18.00;;;;;;;-146.25;100.00;52412.81;2210061;26;30526;-62
2024/04/09 00:45:43;;;;;;;23.98;17.40;;;;;;;-146.25;100.00;52368.19;2210813;26;34094;-62
2024/04/09 00:46:49;;;;;;;20.60;18.02;;;;;;;-146.25;100.00;52398.59;2210445;26;36784;-62
2024/04/09 00:47:55;;;;;;;22.48;17.42;;;;;;;-146.25;100.00;52388.47;2211225;26;30198;-61
2024/04/09 00:48:57;;;;;;;23.00;18.02;;;;;;;-146.25;100.00;52384.41;2210477;26;33207;-61
2024/04/09 00:50:04;;;;;;;23.73;18.10;;;;;;;-146.25;100.00;52392.53;2210075;26;31385;-62
2024/04/09 00:51:09;;;;;;;23.70;18.73;;;;;;;-146.25;100.00;52384.41;2212036;26;21042;-62
2024/04/09 00:52:12;;;;;;;20.95;17.15;;;;;;;-146.25;100.00;52376.31;2222506;26;34775;-62
2024/04/09 00:53:18;;;;;;;20.77;17.67;;;;;;;-146.25;100.00;52382.38;2210570;26;32513;-62
2024/04/09 00:54:20;;;;;;;23.55;18.40;;;;;;;-146.25;100.00;52372.25;2210092;26;36751;-62
2024/04/09 00:55:25;;;;;;;21.48;17.48;;;;;;;-146.25;100.00;52396.59;2210574;26;36359;-62
2024/04/09 00:56:27;;;;;;;21.30;17.80;;;;;;;-146.25;100.00;52400.63;2209740;26;36458;-62
2024/04/09 00:57:30;;;;;;;21.00;18.38;;;;;;;-146.25;100.00;52416.84;2209753;26;29632;-62
2024/04/09 00:58:34;;;;;;;20.50;18.20;;;;;;;-146.25;100.00;52396.59;2209841;26;37866;-62
2024/04/09 00:59:38;;;;;;;19.63;17.45;;;;;;;-146.25;100.00;52356.03;2209678;26;33554;-62
2024/04/09 01:00:42;;;;;;;23.65;17.00;;;;;;;-146.25;100.00;52374.28;2211837;26;20016;-64
2024/04/09 01:01:48;;;;;;;22.52;17.20;;;;;;;-146.25;100.00;52396.59;2209771;26;38036;-62
2024/04/09 01:02:53;;;;;;;24.50;17.80;;;;;;;-146.25;100.00;52384.41;2209916;26;35068;-62
2024/04/09 01:03:55;;;;;;;21.67;17.63;;;;;;;-146.25;100.00;52420.91;2209798;26;35778;-62
2024/04/09 01:04:58;;;;;;;24.67;17.83;;;;;;;-146.25;100.00;52396.59;2210402;26;35091;-62
2024/04/09 01:06:01;;;;;;;21.45;16.80;;;;;;;-146.25;100.00;52384.41;2210409;26;35593;-62
2024/04/09 01:07:03;;;;;;;25.17;17.88;;;;;;;-146.25;100.00;52376.31;2210023;26;37052;-62
2024/04/09 01:08:06;;;;;;;21.38;17.30;;;;;;;-146.25;100.00;52441.19;2209503;26;32230;-62
2024/04/09 01:09:08;;;;;;;23.75;17.90;;;;;;;-146.25;100.00;52380.38;2210663;26;33195;-62
2024/04/09 01:10:11;;;;;;;20.23;16.90;;;;;;;-146.25;100.00;52386.44;2209985;26;36711;-61
2024/04/09 01:11:15;;;;;;;19.08;16.77;;;;;;;-146.25;100.00;52378.34;2210223;26;20005;-62
2024/04/09 01:12:18;;;;;;;20.27;16.60;;;;;;;-146.25;100.00;52418.88;2209965;26;31967;-62
2024/04/09 01:13:20;;;;;;;20.08;16.75;;;;;;;-146.25;100.00;52380.38;2210396;26;34639;-62
2024/04/09 01:14:21;;;;;;;26.60;17.77;;;;;;;-146.25;100.00;52376.31;2210676;26;34715;-62
2024/04/09 01:15:23;;;;;;;23.35;17.58;;;;;;;-146.25;100.00;52384.41;2209627;26;32158;-62
2024/04/09 01:16:28;;;;;;;21.63;17.42;;;;;;;-146.25;100.00;52412.81;2209427;26;35960;-62
2024/04/09 01:17:29;;;;;;;21.65;17.75;;;;;;;-146.25;100.00;52420.91;2211041;26;20001;-63
2024/04/09 01:18:34;;;;;;;18.88;16.02;;;;;;;-146.25;100.00;52384.41;2211104;26;20010;-62
2024/04/09 01:19:36;;;;;;;26.25;17.55;;;;;;;-146.25;100.00;52396.59;2210442;26;33940;-62
2024/04/09 01:20:38;;;;;;;24.00;18.45;;;;;;;-146.25;100.00;52416.84;2210494;26;35555;-62
2024/04/09 01:21:40;;;;;;;22.00;17.15;;;;;;;-146.25;100.00;52392.53;2210988;26;20032;-62
2024/04/09 01:22:43;;;;;;;23.60;17.33;;;;;;;-146.25;100.00;52427.00;2210533;26;32550;-63
2024/04/09 01:23:45;;;;;;;22.63;17.92;;;;;;;-146.25;100.00;52406.72;2209609;26;31767;-63
2024/04/09 01:24:51;;;;;;;20.38;16.90;;;;;;;-146.25;100.00;52390.50;2209481;26;32678;-61
2024/04/09 01:25:54;;;;;;;22.33;17.08;;;;;;;-146.25;100.00;52372.25;2210037;26;34282;-62
2024/04/09 01:26:56;;;;;;;19.45;16.50;;;;;;;-146.25;100.00;52376.31;2210409;26;33741;-62
2024/04/09 01:27:59;;;;;;;19.42;16.02;;;;;;;-146.25;100.00;52396.59;2210432;26;32349;-63
2024/04/09 01:29:01;;;;;;;21.23;15.68;;;;;;;-146.25;100.00;52394.56;2210761;26;37042;-62
2024/04/09 01:30:06;;;;;;;22.88;16.27;;;;;;;-146.25;100.00;52374.28;2210225;26;35788;-63
2024/04/09 01:31:12;;;;;;;20.90;16.50;;;;;;;-146.25;100.00;52390.50;2209552;26;34437;-62
2024/04/09 01:32:17;;;;;;;20.75;15.30;;;;;;;-146.25;100.00;52370.22;2211699;26;21068;-63
2024/04/09 01:33:21;;;;;;;19.85;16.20;;;;;;;-146.25;100.00;52420.91;2223454;26;34140;-62
2024/04/09 01:34:23;;;;;;;22.63;16.58;;;;;;;-146.25;100.00;52374.28;2208851;26;32469;-63
2024/04/09 01:35:25;;;;;;;23.75;16.73;;;;;;;-146.25;100.00;52412.81;2209499;26;35990;-62
2024/04/09 01:36:31;;;;;;;21.45;17.67;;;;;;;-146.25;100.00;52394.56;2210340;26;30263;-62
2024/04/09 01:37:34;;;;;;;21.90;17.85;;;;;;;-146.25;100.00;52366.16;2210516;26;34121;-62
2024/04/09 01:38:37;;;;;;;23.27;17.13;;;;;;;-146.25;100.00;52392.53;2209337;26;33057;-62
2024/04/09 01:39:42;;;;;;;21.92;16.58;;;;;;;-146.25;100.00;52392.53;2209743;26;30205;-62
2024/04/09 01:40:44;;;;;;;26.15;18.00;;;;;;;-146.25;100.00;52408.75;2209767;26;32539;-62
2024/04/09 01:41:46;;;;;;;20.90;16.60;;;;;;;-146.25;100.00;52380.38;2210596;26;31800;-62
2024/04/09 01:42:48;;;;;;;20.13;16.40;;;;;;;-146.25;100.00;52360.09;2210103;26;32345;-63
2024/04/09 01:43:50;;;;;;;19.23;16.23;;;;;;;-146.25;100.00;52376.31;2210448;26;37373;-62
2024/04/09 01:44:55;;;;;;;24.67;17.83;;;;;;;-146.25;100.00;52414.84;2210180;26;32800;-62
2024/04/09 01:45:57;;;;;;;23.98;18.35;;;;;;;-146.25;100.00;52384.41;2210415;26;33247;-62
2024/04/09 01:46:59;;;;;;;22.40;17.85;;;;;;;-146.25;100.00;52388.47;2209969;26;36450;-62
2024/04/09 01:48:01;;;;;;;22.58;17.48;;;;;;;-146.25;100.00;52400.63;2211036;26;21152;-62
2024/04/09 01:49:04;;;;;;;21.63;18.05;;;;;;;-146.25;100.00;52384.41;2209957;26;36818;-60
2024/04/09 01:50:09;;;;;;;20.20;15.20;;;;;;;-146.25;100.00;52380.38;2224079;26;35177;-62
2024/04/09 01:51:12;;;;;;;19.88;17.13;;;;;;;-146.25;100.00;52416.84;2222919;26;32598;-62
2024/04/09 01:52:14;;;;;;;23.30;17.40;;;;;;;-146.25;100.00;52386.44;2210912;26;30774;-62
2024/04/09 01:53:16;;;;;;;23.38;17.15;;;;;;;-146.25;100.00;52370.22;2210493;26;20009;-62
2024/04/09 01:54:18;;;;;;;20.15;16.85;;;;;;;-146.25;100.00;52384.41;2224031;26;32810;-62
2024/04/09 01:55:22;;;;;;;20.73;16.95;;;;;;;-146.25;100.00;52392.53;2223027;26;30554;-62
2024/04/09 01:56:24;;;;;;;21.95;16.77;;;;;;;-146.25;100.00;52390.50;2210576;26;28285;-63
2024/04/09 01:57:35;;;;;;;20.27;16.15;;;;;;;-146.25;100.00;52360.09;2210699;26;20016;-62
2024/04/09 01:58:37;;;;;;;21.10;15.10;;;;;;;-146.25;100.00;52420.91;2209555;26;33715;-62
2024/04/09 01:59:39;;;;;;;17.73;14.38;;;;;;;-146.25;100.00;52360.09;2209010;26;33478;-63
2024/04/09 02:00:41;;;;;;;21.42;15.93;;;;;;;-146.25;100.00;52378.34;2210069;26;20934;-62
2024/04/09 02:01:44;;;;;;;20.42;16.00;;;;;;;-146.25;100.00;52429.03;2209744;26;36457;-62
2024/04/09 02:02:52;;;;;;;25.00;17.38;;;;;;;-146.25;100.00;52394.56;2209530;26;34535;-62
2024/04/09 02:03:58;;;;;;;20.58;16.40;;;;;;;-146.25;100.00;52394.56;2209353;26;30251;-62
2024/04/09 02:05:00;;;;;;;20.80;15.43;;;;;;;-146.25;100.00;52451.31;2210157;26;36404;-62
2024/04/09 02:06:02;;;;;;;20.48;15.07;;;;;;;-146.25;100.00;52408.75;2210583;26;20017;-62
2024/04/09 02:07:04;;;;;;;22.13;16.83;;;;;;;-146.25;100.00;52390.50;2210115;26;36328;-61
2024/04/09 02:08:06;;;;;;;20.67;15.73;;;;;;;-146.25;100.00;52384.41;2209868;26;34670;-62
2024/04/09 02:09:10;;;;;;;21.15;16.80;;;;;;;-146.25;100.00;52416.84;2210215;26;31789;-62
2024/04/09 02:10:13;;;;;;;19.20;17.05;;;;;;;-146.25;100.00;52414.84;2209757;26;40422;-62
2024/04/09 02:11:16;;;;;;;24.45;17.70;;;;;;;-146.25;100.00;52376.31;2210583;26;20039;-63
2024/04/09 02:12:18;;;;;;;20.77;16.17;;;;;;;-146.25;100.00;52414.84;2208851;26;36127;-62
2024/04/09 02:13:20;;;;;;;22.98;16.60;;;;;;;-146.25;100.00;52360.09;2209741;26;38444;-63
2024/04/09 02:14:22;;;;;;;23.20;17.20;;;;;;;-146.25;100.00;52349.94;2211600;26;32771;-63
2024/04/09 02:15:25;;;;;;;24.13;17.85;;;;;;;-146.25;100.00;52372.25;2211440;26;35062;-62
2024/04/09 02:16:27;;;;;;;22.77;17.35;;;;;;;-146.25;100.00;52368.19;2211131;26;35751;-62
2024/04/09 02:17:28;;;;;;;22.25;17.70;;;;;;;-146.25;100.00;52386.44;2211556;26;36156;-62
2024/04/09 02:18:33;;;;;;;22.65;17.45;;;;;;;-146.25;100.00;52398.59;2210809;26;38954;-62
2024/04/09 02:19:36;;;;;;;25.60;17.20;;;;;;;-146.25;100.00;52380.38;2211568;26;33274;-63
2024/04/09 02:20:38;;;;;;;22.38;16.27;;;;;;;-146.25;100.00;52392.53;2210440;26;33789;-62
2024/04/09 02:21:40;;;;;;;21.42;16.85;;;;;;;-146.25;100.00;52370.22;2195062;27;38839;-63
2024/04/09 02:22:42;;;;;;;20.77;17.73;;;;;;;-146.25;100.00;52374.28;2195938;26;20006;-62
2024/04/09 02:23:45;;;;;;;24.60;16.40;;;;;;;-146.25;100.00;52414.84;2210164;26;36712;-63
2024/04/09 02:24:47;;;;;;;24.48;17.67;;;;;;;-146.25;100.00;52396.59;2209713;26;32560;-61
2024/04/09 02:25:49;;;;;;;20.85;16.25;;;;;;;-146.25;100.00;52408.75;2209776;26;33704;-62
2024/04/09 02:26:50;;;;;;;26.02;16.40;;;;;;;-146.25;100.00;52396.59;2209672;26;34899;-62
2024/04/09 02:27:52;;;;;;;22.05;15.57;;;;;;;-146.25;100.00;52396.59;2209727;26;30279;-62
2024/04/09 02:28:55;;;;;;;21.98;15.52;;;;;;;-146.25;100.00;52372.25;2210135;26;36086;-62
2024/04/09 02:29:59;;;;;;;20.38;14.80;;;;;;;-146.25;100.00;52414.84;2211123;26;32590;-62
2024/04/09 02:31:05;;;;;;;16.73;14.50;;;;;;;-146.25;100.00;52404.69;2211881;26;20044;-62
2024/04/09 02:32:07;;;;;;;20.42;13.88;;;;;;;-146.25;100.00;52360.09;2212318;26;20989;-62
2024/04/09 02:33:09;;;;;;;20.90;14.90;;;;;;;-146.25;100.00;52380.38;2210046;26;37898;-63
2024/04/09 02:34:11;;;;;;;19.05;13.43;;;;;;;-146.25;100.00;52402.66;2210789;26;33782;-63
2024/04/09 02:35:13;;;;;;;19.25;13.13;;;;;;;-146.25;100.00;52408.75;2224437;26;35429;-62
2024/04/09 02:36:15;;;;;;;18.40;13.05;;;;;;;-146.25;100.00;52372.25;2211153;26;32999;-63
2024/04/09 02:37:17;;;;;;;21.27;13.00;;;;;;;-146.25;100.00;52406.72;2210843;26;35562;-62
2024/04/09 02:38:18;;;;;;;20.85;13.57;;;;;;;-146.25;100.00;52368.19;2211618;26;31508;-62
2024/04/09 02:39:22;;;;;;;17.83;13.40;;;;;;;-146.25;100.00;52392.53;2210882;26;34368;-62
2024/04/09 02:40:25;;;;;;;21.17;13.27;;;;;;;-146.25;100.00;52388.47;2210204;26;33894;-62
2024/04/09 02:41:27;;;;;;;24.65;13.40;;;;;;;-146.25;100.00;52398.59;2209559;26;36921;-63
2024/04/09 02:42:29;;;;;;;16.77;12.52;;;;;;;-146.25;100.00;52420.91;2211598;26;20017;-62
2024/04/09 02:43:35;;;;;;;17.45;13.02;;;;;;;-146.25;100.00;52398.59;2210532;26;35840;-62
2024/04/09 02:44:37;;;;;;;20.45;12.35;;;;;;;-146.25;100.00;52396.59;2211340;26;20001;-63
2024/04/09 02:45:39;;;;;;;16.85;11.80;;;;;;;-146.25;100.00;52372.25;2210228;26;32571;-63
2024/04/09 02:46:42;;;;;;;18.67;11.70;;;;;;;-146.25;100.00;52443.22;2211603;26;36626;-62
2024/04/09 02:47:44;;;;;;;16.85;11.25;;;;;;;-146.25;100.00;52396.59;2215277;26;36763;-63
2024/04/09 02:48:47;;;;;;;15.48;11.75;;;;;;;-146.25;100.00;52392.53;2225539;26;26396;-63
2024/04/09 02:49:52;;;;;;;17.20;11.80;;;;;;;-146.25;100.00;52372.25;2213913;26;20131;-63
2024/04/09 02:51:01;;;;;;;22.83;11.43;;;;;;;-146.25;100.00;52400.63;2211131;26;34090;-60
2024/04/09 02:52:03;;;;;;;19.65;10.95;;;;;;;-146.25;100.00;52402.66;2209371;26;33464;-64
2024/04/09 02:53:05;;;;;;;13.95;10.85;;;;;;;-146.25;100.00;52362.13;2211208;26;37708;-62
2024/04/09 02:54:09;;;;;;;16.83;10.48;;;;;;;-146.25;100.00;52362.13;2211050;26;32026;-63
2024/04/09 02:55:13;;;;;;;14.98;10.88;;;;;;;-146.25;100.00;52362.13;2211127;26;36747;-63
2024/04/09 02:56:15;;;;;;;18.60;10.10;;;;;;;-146.25;100.00;52396.59;2209628;26;29293;-63
2024/04/09 02:57:17;;;;;;;15.63;10.50;;;;;;;-146.25;100.00;52364.13;2210154;26;33257;-63
2024/04/09 02:58:19;;;;;;;15.50;10.50;;;;;;;-146.25;100.00;52392.53;2210363;26;38400;-62
2024/04/09 02:59:21;;;;;;;17.67;10.50;;;;;;;-146.25;100.00;52382.38;2211190;26;31078;-62
2024/04/09 03:00:23;;;;;;;19.95;10.27;;;;;;;-146.25;100.00;52445.25;2210856;26;34419;-63
2024/04/09 03:01:25;;;;;;;19.38;10.50;;;;;;;-146.25;100.00;52382.38;2211317;26;35173;-62
2024/04/09 03:02:27;;;;;;;12.23;9.75;;;;;;;-146.25;100.00;52404.69;2210866;26;20002;-63
2024/04/09 03:03:29;;;;;;;15.38;9.90;;;;;;;-146.25;100.00;52404.69;2210454;26;36489;-62
2024/04/09 03:04:33;;;;;;;16.98;10.27;;;;;;;-146.25;100.00;52424.97;2219763;26;36089;-62
2024/04/09 03:05:36;;;;;;;17.23;9.95;;;;;;;-146.25;100.00;52408.75;2225774;26;33731;-62
2024/04/09 03:06:38;;;;;;;16.27;9.18;;;;;;;-146.25;100.00;52400.63;2225337;26;37894;-63
2024/04/09 03:07:40;;;;;;;16.00;10.07;;;;;;;-146.25;100.00;52386.44;2225802;26;33106;-62
2024/04/09 03:08:43;;;;;;;14.52;9.75;;;;;;;-146.25;100.00;52420.91;2225497;26;32457;-62
2024/04/09 03:09:45;;;;;;;14.80;9.32;;;;;;;-146.25;100.00;52392.53;2225936;26;33390;-63
2024/04/09 03:10:47;;;;;;;14.50;9.10;;;;;;;-146.25;100.00;52378.34;2223730;26;32571;-62
2024/04/09 03:11:49;;;;;;;14.38;9.50;;;;;;;-146.25;100.00;52384.41;2211157;26;36265;-62
2024/04/09 03:12:51;;;;;;;12.68;9.70;;;;;;;-146.25;100.00;52398.59;2211133;26;32038;-63
2024/04/09 03:13:53;;;;;;;16.83;9.45;;;;;;;-146.25;100.00;52402.66;2212030;26;20005;-63
2024/04/09 03:14:55;;;;;;;16.98;9.98;;;;;;;-146.25;100.00;52412.81;2210739;26;36674;-62
2024/04/09 03:15:59;;;;;;;17.85;10.25;;;;;;;-146.25;100.00;52433.06;2211251;26;33048;-62
2024/04/09 03:17:01;;;;;;;15.73;9.18;;;;;;;-146.25;100.00;52380.38;2210846;26;35502;-63
2024/04/09 03:18:03;;;;;;;16.60;8.35;;;;;;;-146.25;100.00;52390.50;2211406;26;30508;-63
2024/04/09 03:19:08;;;;;;;15.25;8.43;;;;;;;-146.25;100.00;52400.63;2210720;26;35333;-63
2024/04/09 03:20:10;;;;;;;14.93;8.95;;;;;;;-146.25;100.00;52396.59;2211144;26;35991;-62
2024/04/09 03:21:13;;;;;;;11.80;8.23;;;;;;;-146.25;100.00;52404.69;2211336;26;36736;-63
2024/04/09 03:22:15;;;;;;;14.70;8.68;;;;;;;-146.25;100.00;52382.38;2211177;26;36022;-62
2024/04/09 03:23:17;;;;;;;11.70;8.65;;;;;;;-146.25;100.00;52412.81;2211062;26;37305;-62
2024/04/09 03:24:19;;;;;;;13.02;8.43;;;;;;;-146.25;100.00;52368.19;2210753;26;32904;-63
2024/04/09 03:25:21;;;;;;;14.32;8.88;;;;;;;-146.25;100.00;52408.75;2209944;26;32987;-63
2024/04/09 03:26:23;;;;;;;18.45;9.25;;;;;;;-146.25;100.00;52390.50;2210200;26;36676;-63
2024/04/09 03:27:26;;;;;;;17.77;9.55;;;;;;;-146.25;100.00;52404.69;2210715;26;34638;-63
2024/04/09 03:28:28;;;;;;;14.60;9.02;;;;;;;-146.25;100.00;52396.59;2211296;26;34518;-62
2024/04/09 03:29:30;;;;;;;14.02;8.93;;;;;;;-146.25;100.00;52388.47;2210832;26;37846;-62
2024/04/09 03:30:32;;;;;;;17.48;8.55;;;;;;;-146.25;100.00;52429.03;2211363;26;36626;-63
2024/04/09 03:31:34;;;;;;;13.13;8.13;;;;;;;-146.25;100.00;52420.91;2210950;26;32990;-62
2024/04/09 03:32:38;;;;;;;14.48;8.38;;;;;;;-146.25;100.00;52396.59;2211198;26;34013;-62
2024/04/09 03:33:40;;;;;;;16.00;8.40;;;;;;;-146.25;100.00;52416.84;2211616;26;20001;-63
2024/04/09 03:34:45;;;;;;;14.77;8.07;;;;;;;-146.25;100.00;52372.25;2210443;26;33856;-63
2024/04/09 03:35:54;;;;;;;13.50;7.95;;;;;;;-146.25;100.00;52390.50;2211090;26;36648;-63
2024/04/09 03:36:59;;;;;;;15.13;8.07;;;;;;;-146.25;100.00;52418.88;2222469;26;30470;-63
2024/04/09 03:38:01;;;;;;;15.93;8.70;;;;;;;-146.25;100.00;52402.66;2195640;27;33603;-63
2024/04/09 03:39:04;;;;;;;16.55;8.55;;;;;;;-146.25;100.00;52408.75;2197759;26;20014;-63
2024/04/09 03:40:11;;;;;;;14.57;8.32;;;;;;;-146.25;100.00;52412.81;2210621;26;33416;-63
2024/04/09 03:41:15;;;;;;;11.98;8.40;;;;;;;-146.25;100.00;52431.06;2211424;26;20005;-63
2024/04/09 03:42:17;;;;;;;14.60;8.40;;;;;;;-146.25;100.00;52406.72;2211185;26;31825;-63
2024/04/09 03:43:20;;;;;;;16.50;8.73;;;;;;;-146.25;100.00;52427.00;2212028;26;20008;-63
2024/04/09 03:44:22;;;;;;;16.42;8.85;;;;;;;-146.25;100.00;52392.53;2210890;26;39316;-63
2024/04/09 03:45:24;;;;;;;16.77;8.25;;;;;;;-146.25;100.00;52400.63;2224770;26;32245;-63
2024/04/09 03:46:26;;;;;;;12.68;6.97;;;;;;;-146.25;100.00;52429.03;2224438;26;36991;-63
2024/04/09 03:47:28;;;;;;;16.55;8.43;;;;;;;-146.25;100.00;52459.44;2210886;26;31787;-63
2024/04/09 03:48:30;;;;;;;13.98;8.07;;;;;;;-146.25;100.00;52429.03;2225312;26;20514;-63
2024/04/09 03:49:34;;;;;;;14.38;8.48;;;;;;;-146.25;100.00;52388.47;2223899;26;35443;-64
2024/04/09 03:50:36;;;;;;;13.68;8.05;;;;;;;-146.25;100.00;52443.22;2210300;26;32200;-63
2024/04/09 03:51:39;;;;;;;13.27;7.63;;;;;;;-146.25;100.00;52398.59;2210108;26;36519;-63
2024/04/09 03:52:41;;;;;;;16.67;8.35;;;;;;;-146.25;100.00;52410.78;2211037;26;34830;-63
2024/04/09 03:53:47;;;;;;;16.08;8.38;;;;;;;-146.25;100.00;52414.84;2210979;26;35186;-63
2024/04/09 03:54:49;;;;;;;17.15;8.63;;;;;;;-146.25;100.00;52408.75;2210704;26;20005;-62
2024/04/09 03:56:02;;;;;;;14.07;7.22;;;;;;;-146.25;100.00;52424.97;2208023;26;33906;-63
2024/04/09 03:57:04;;;;;;;13.65;7.82;;;;;;;-146.25;100.00;52420.91;2211142;26;35170;-63
2024/04/09 03:58:06;;;;;;;12.65;7.40;;;;;;;-146.25;100.00;52416.84;2211574;26;20005;-63
2024/04/09 03:59:08;;;;;;;20.33;8.57;;;;;;;-146.25;100.00;52424.97;2224727;26;37688;-63
2024/04/09 04:00:12;;;;;;;15.00;8.30;;;;;;;-146.25;100.00;52431.06;2210517;26;21019;-63
2024/04/09 04:01:16;;;;;;;14.02;8.25;;;;;;;-146.25;100.00;52398.59;2210357;26;36314;-63
2024/04/09 04:02:17;;;;;;;16.23;8.23;;;;;;;-146.25;100.00;52394.56;2210773;26;34456;-63
2024/04/09 04:03:20;;;;;;;13.00;8.70;;;;;;;-146.25;100.00;52416.84;2211920;26;19997;-63
2024/04/09 04:04:22;;;;;;;16.33;9.07;;;;;;;-146.25;100.00;52437.13;2224377;26;37213;-63
2024/04/09 04:05:24;;;;;;;16.77;9.10;;;;;;;-146.25;100.00;52392.53;2224208;26;36398;-62
2024/04/09 04:06:26;;;;;;;18.23;8.60;;;;;;;-146.25;100.00;52420.91;2211380;26;32114;-63
2024/04/09 04:07:28;;;;;;;16.20;8.73;;;;;;;-146.25;100.00;52416.84;2210977;26;36723;-63
2024/04/09 04:08:35;;;;;;;15.20;8.00;;;;;;;-146.25;100.00;52396.59;2210706;26;34073;-63
2024/04/09 04:09:37;;;;;;;17.20;9.27;;;;;;;-146.25;100.00;52388.47;2224865;26;30004;-63
2024/04/09 04:10:39;;;;;;;19.40;9.48;;;;;;;-146.25;100.00;52400.63;2222888;26;32001;-63
2024/04/09 04:11:40;;;;;;;17.00;9.15;;;;;;;-146.25;100.00;52394.56;2210838;26;34380;-63
2024/04/09 04:12:42;;;;;;;17.17;9.23;;;;;;;-146.25;100.00;52445.25;2210734;26;32799;-63
2024/04/09 04:13:44;;;;;;;17.00;8.85;;;;;;;-146.25;100.00;52396.59;2211083;26;32702;-63
2024/04/09 04:14:46;;;;;;;15.32;8.40;;;;;;;-146.25;100.00;52424.97;2211438;26;20013;-63
2024/04/09 04:16:12;;;;;;;16.23;9.32;;;;;;;-146.25;100.00;52400.63;2211072;26;32730;-62
2024/04/09 04:17:14;;;;;;;15.30;9.15;;;;;;;-146.25;100.00;52412.81;2209861;26;33905;-62
2024/04/09 04:18:16;;;;;;;16.75;9.30;;;;;;;-146.25;100.00;52416.84;2210869;26;20020;-63
2024/04/09 04:19:17;;;;;;;17.42;8.73;;;;;;;-146.25;100.00;52392.53;2210429;26;36023;-62
2024/04/09 04:20:19;;;;;;;15.80;9.52;;;;;;;-146.25;100.00;52418.88;2210959;26;35069;-62
2024/04/09 04:21:25;;;;;;;20.20;10.68;;;;;;;-146.25;100.00;52412.81;2210622;26;34457;-62
2024/04/09 04:22:27;;;;;;;18.80;10.80;;;;;;;-146.25;100.00;52437.13;2211024;26;37723;-62
2024/04/09 04:23:29;;;;;;;22.10;10.38;;;;;;;-146.25;100.00;52402.66;2210754;26;32312;-63
2024/04/09 04:24:31;;;;;;;17.27;10.27;;;;;;;-146.25;100.00;52418.88;2211079;26;35764;-62
2024/04/09 04:25:33;;;;;;;20.42;10.30;;;;;;;-146.25;100.00;52441.19;2210555;26;31806;-62
2024/04/09 04:26:35;;;;;;;18.63;11.05;;;;;;;-146.25;100.00;52431.06;2211413;26;20016;-62
2024/04/09 04:27:37;;;;;;;21.13;11.07;;;;;;;-146.25;100.00;52372.25;2210534;26;35407;-62
2024/04/09 04:28:42;;;;;;;16.52;10.38;;;;;;;-146.25;100.00;52416.84;2211317;26;34297;-63
2024/04/09 04:29:44;;;;;;;18.65;11.23;;;;;;;-146.25;100.00;52412.81;2210354;26;20902;-63
2024/04/09 04:30:46;;;;;;;20.30;11.38;;;;;;;-146.25;100.00;52398.59;2211104;26;35083;-62
2024/04/09 04:31:50;;;;;;;16.98;9.98;;;;;;;-146.25;100.00;52390.50;2224436;26;23343;-62
2024/04/09 04:32:52;;;;;;;16.45;10.48;;;;;;;-146.25;100.00;52408.75;2211032;26;32839;-62
2024/04/09 04:33:54;;;;;;;20.42;11.32;;;;;;;-146.25;100.00;52392.53;2210538;26;36077;-63
2024/04/09 04:34:56;;;;;;;22.58;11.85;;;;;;;-146.25;100.00;52437.13;2211555;26;19997;-63
2024/04/09 04:35:58;;;;;;;17.05;12.23;;;;;;;-146.25;100.00;52424.97;2209180;26;36711;-62
2024/04/09 04:37:00;;;;;;;21.95;12.68;;;;;;;-146.25;100.00;52392.53;2210656;26;33189;-62
2024/04/09 04:38:03;;;;;;;18.40;12.65;;;;;;;-146.25;100.00;52368.19;2210532;26;32514;-63
2024/04/09 04:39:07;;;;;;;19.70;11.90;;;;;;;-146.25;100.00;52396.59;2210984;26;35625;-62
2024/04/09 04:40:11;;;;;;;22.00;12.82;;;;;;;-146.25;100.00;52418.88;2211171;26;20001;-62
2024/04/09 04:41:14;;;;;;;22.48;13.23;;;;;;;-146.25;100.00;52420.91;2210514;26;36598;-62